createdAt,value
2022-09-02T00:01:50.057Z,101293.34
2022-09-02T00:03:57.803Z,101294.00
2022-09-02T00:05:59.682Z,101291.16
2022-09-02T00:08:01.646Z,101290.13
2022-09-02T00:10:03.994Z,101289.47
2022-09-02T00:12:06.965Z,101292.28
2022-09-02T00:14:19.879Z,101288.56
2022-09-02T00:16:24.019Z,101287.03
2022-09-02T00:18:27.510Z,101285.56
2022-09-02T00:20:30.966Z,101284.88
2022-09-02T00:22:33.176Z,101285.28
2022-09-02T00:24:35.242Z,101285.19
2022-09-02T00:26:38.583Z,101293.28
2022-09-02T00:28:46.298Z,101296.03
2022-09-02T00:30:53.202Z,101287.09
2022-09-02T00:32:55.476Z,101298.47
2022-09-02T00:34:59.082Z,101293.91
2022-09-02T00:37:01.943Z,101293.84
2022-09-02T00:39:07.702Z,101298.59
2022-09-02T00:41:11.982Z,101295.22
2022-09-02T00:43:24.851Z,101293.25
2022-09-02T00:45:27.419Z,101291.88
2022-09-02T00:47:31.409Z,101301.47
2022-09-02T00:49:39.209Z,101305.69
2022-09-02T00:52:00.557Z,101297.28
2022-09-02T00:54:05.127Z,101298.84
2022-09-02T00:56:12.021Z,101301.53
2022-09-02T00:58:27.381Z,101303.16
2022-09-02T01:00:34.628Z,101301.34
2022-09-02T01:02:38.695Z,101292.63
2022-09-02T01:04:43.336Z,101296.00
2022-09-02T01:06:46.595Z,101293.34
2022-09-02T01:08:57.284Z,101291.47
2022-09-02T01:10:59.589Z,101288.78
2022-09-02T01:13:08.550Z,101292.53
2022-09-02T01:15:13.013Z,101294.09
2022-09-02T01:17:19.630Z,101295.47
2022-09-02T01:19:25.550Z,101291.00
2022-09-02T01:21:27.958Z,101290.59
2022-09-02T01:23:34.648Z,101298.91
2022-09-02T01:25:37.108Z,101293.19
2022-09-02T01:27:39.193Z,101301.06
2022-09-02T01:29:42.134Z,101295.13
2022-09-02T01:31:45.522Z,101298.47
2022-09-02T01:33:47.505Z,101291.19
2022-09-02T01:35:49.516Z,101294.28
2022-09-02T01:37:56.173Z,101292.88
2022-09-02T01:40:05.033Z,101295.91
2022-09-02T01:42:08.172Z,101300.16
2022-09-02T01:44:11.136Z,101295.84
2022-09-02T01:46:13.087Z,101298.84
2022-09-02T01:48:18.053Z,101307.78
2022-09-02T01:50:26.026Z,101309.78
2022-09-02T01:52:29.779Z,101309.53
2022-09-02T01:54:31.771Z,101305.88
2022-09-02T01:56:33.674Z,101297.72
2022-09-02T01:58:36.164Z,101303.69
2022-09-02T02:00:38.293Z,101300.69
2022-09-02T02:02:40.778Z,101303.28
2022-09-02T02:04:46.322Z,101299.34
2022-09-02T02:06:52.326Z,101303.34
2022-09-02T02:08:55.380Z,101300.56
2022-09-02T02:10:58.344Z,101304.19
2022-09-02T02:13:01.715Z,101308.28
2022-09-02T02:15:06.604Z,101301.38
2022-09-02T02:17:08.542Z,101304.16
2022-09-02T02:19:10.464Z,101301.41
2022-09-02T02:21:12.542Z,101299.47
2022-09-02T02:23:14.583Z,101294.97
2022-09-02T02:25:17.317Z,101286.56
2022-09-02T02:27:19.625Z,101289.75
2022-09-02T02:29:21.635Z,101287.34
2022-09-02T02:31:25.039Z,101285.13
2022-09-02T02:33:35.903Z,101283.41
2022-09-02T02:35:38.468Z,101280.06
2022-09-02T02:37:40.710Z,101282.66
2022-09-02T02:39:43.565Z,101286.78
2022-09-02T02:41:46.858Z,101283.97
2022-09-02T02:43:49.753Z,101292.38
2022-09-02T02:45:52.332Z,101285.78
2022-09-02T02:47:54.778Z,101291.09
2022-09-02T02:49:56.687Z,101289.06
2022-09-02T02:51:58.945Z,101296.19
2022-09-02T02:54:02.366Z,101295.03
2022-09-02T02:56:05.713Z,101293.28
2022-09-02T02:58:07.670Z,101297.31
2022-09-02T03:00:14.077Z,101294.28
2022-09-02T03:02:17.219Z,101293.69
2022-09-02T03:04:20.461Z,101300.63
2022-09-02T03:06:26.475Z,101294.78
2022-09-02T03:08:29.105Z,101298.38
2022-09-02T03:10:32.977Z,101295.97
2022-09-02T03:12:36.484Z,101295.28
2022-09-02T03:14:38.391Z,101299.66
2022-09-02T03:16:40.323Z,101293.84
2022-09-02T03:18:42.459Z,101295.31
2022-09-02T03:20:45.251Z,101298.13
2022-09-02T03:22:48.563Z,101301.03
2022-09-02T03:24:50.519Z,101302.00
2022-09-02T03:26:52.449Z,101299.94
2022-09-02T03:28:56.911Z,101302.72
2022-09-02T03:30:58.868Z,101307.25
2022-09-02T03:33:04.270Z,101305.09
2022-09-02T03:35:08.841Z,101300.91
2022-09-02T03:37:10.899Z,101296.72
2022-09-02T03:39:12.963Z,101294.94
2022-09-02T03:41:14.877Z,101302.41
2022-09-02T03:43:16.838Z,101306.53
2022-09-02T03:45:19.398Z,101299.09
2022-09-02T03:47:24.546Z,101304.69
2022-09-02T03:49:28.051Z,101304.09
2022-09-02T03:51:30.136Z,101306.63
2022-09-02T03:53:32.441Z,101312.47
2022-09-02T03:55:37.987Z,101310.66
2022-09-02T03:57:40.049Z,101328.47
2022-09-02T03:59:42.024Z,101319.78
2022-09-02T04:01:44.367Z,101326.19
2022-09-02T04:03:47.310Z,101334.56
2022-09-02T04:05:51.093Z,101327.28
2022-09-02T04:07:53.138Z,101333.47
2022-09-02T04:09:56.582Z,101328.38
2022-09-02T04:11:58.542Z,101333.22
2022-09-02T04:14:00.811Z,101336.59
2022-09-02T04:16:11.693Z,101338.41
2022-09-02T04:18:14.638Z,101335.44
2022-09-02T04:20:17.210Z,101339.41
2022-09-02T04:22:19.731Z,101347.88
2022-09-02T04:24:22.585Z,101352.19
2022-09-02T04:26:24.759Z,101347.56
2022-09-02T04:28:27.736Z,101341.47
2022-09-02T04:30:29.691Z,101344.84
2022-09-02T04:32:33.961Z,101352.47
2022-09-02T04:34:37.758Z,101354.09
2022-09-02T04:36:39.803Z,101353.75
2022-09-02T04:38:42.737Z,101339.59
2022-09-02T04:40:47.125Z,101330.16
2022-09-02T04:42:49.302Z,101323.22
2022-09-02T04:44:58.138Z,101328.56
2022-09-02T04:47:00.454Z,101323.47
2022-09-02T04:49:03.554Z,101319.22
2022-09-02T04:51:14.818Z,101304.81
2022-09-02T04:53:16.786Z,101304.16
2022-09-02T04:55:18.821Z,101300.28
2022-09-02T04:57:20.800Z,101292.81
2022-09-02T04:59:24.792Z,101297.84
2022-09-02T05:01:34.892Z,101297.88
2022-09-02T05:03:37.929Z,101293.09
2022-09-02T05:05:40.566Z,101299.72
2022-09-02T05:07:42.732Z,101301.72
2022-09-02T05:09:44.758Z,101291.09
2022-09-02T05:11:48.285Z,101291.97
2022-09-02T05:13:54.531Z,101290.88
2022-09-02T05:15:59.384Z,101297.38
2022-09-02T05:18:02.166Z,101298.91
2022-09-02T05:20:08.471Z,101292.06
2022-09-02T05:22:10.654Z,101288.03
2022-09-02T05:24:13.628Z,101285.25
2022-09-02T05:26:15.791Z,101285.75
2022-09-02T05:28:17.959Z,101293.66
2022-09-02T05:30:20.076Z,101286.59
2022-09-02T05:32:23.224Z,101287.91
2022-09-02T05:34:25.387Z,101286.75
2022-09-02T05:36:28.461Z,101285.59
2022-09-02T05:38:32.627Z,101283.84
2022-09-02T05:40:34.999Z,101285.19
2022-09-02T05:42:37.635Z,101278.22
2022-09-02T05:44:39.843Z,101279.06
2022-09-02T05:46:46.726Z,101282.00
2022-09-02T05:49:09.551Z,101292.06
2022-09-02T05:51:11.481Z,101290.31
2022-09-02T05:53:14.985Z,101291.47
2022-09-02T05:55:17.642Z,101294.09
2022-09-02T05:57:22.188Z,101289.97
2022-09-02T05:59:27.153Z,101291.06
2022-09-02T06:01:30.824Z,101285.22
2022-09-02T06:03:32.838Z,101286.50
2022-09-02T06:05:36.056Z,101282.13
2022-09-02T06:07:38.004Z,101284.09
2022-09-02T06:09:41.289Z,101284.94
2022-09-02T06:11:45.635Z,101289.88
2022-09-02T06:13:48.986Z,101285.41
2022-09-02T06:15:51.657Z,101291.75
2022-09-02T06:17:53.674Z,101288.72
2022-09-02T06:19:55.636Z,101288.22
2022-09-02T06:22:00.964Z,101288.34
2022-09-02T06:24:06.567Z,101293.38
2022-09-02T06:26:10.762Z,101297.81
2022-09-02T06:28:13.582Z,101293.06
2022-09-02T06:30:15.602Z,101295.16
2022-09-02T06:32:17.610Z,101295.19
2022-09-02T06:34:22.121Z,101294.00
2022-09-02T06:36:28.257Z,101288.13
2022-09-02T06:38:30.496Z,101286.28
2022-09-02T06:40:32.489Z,101288.31
2022-09-02T06:42:34.530Z,101286.28
2022-09-02T06:44:38.174Z,101278.28
2022-09-02T06:46:43.782Z,101286.69
2022-09-02T06:48:46.034Z,101279.03
2022-09-02T06:50:48.249Z,101285.34
2022-09-02T06:52:51.262Z,101297.88
2022-09-02T06:54:55.176Z,101287.66
2022-09-02T06:56:57.581Z,101288.69
2022-09-02T06:58:59.631Z,101293.81
2022-09-02T07:01:01.730Z,101289.28
2022-09-02T07:03:23.613Z,101280.31
2022-09-02T07:05:25.915Z,101292.56
2022-09-02T07:07:29.138Z,101293.66
2022-09-02T07:09:34.003Z,101285.97
2022-09-02T07:11:35.974Z,101285.06
2022-09-02T07:13:37.977Z,101299.19
2022-09-02T07:15:41.575Z,101296.22
2022-09-02T07:17:43.930Z,101294.75
2022-09-02T07:19:45.873Z,101292.34
2022-09-02T07:21:49.581Z,101287.91
2022-09-02T07:23:51.622Z,101290.56
2022-09-02T07:25:55.730Z,101288.88
2022-09-02T07:27:57.684Z,101298.75
2022-09-02T07:30:00.286Z,101303.41
2022-09-02T07:32:02.729Z,101301.91
2022-09-02T07:34:06.260Z,101303.38
2022-09-02T07:36:12.653Z,101309.69
2022-09-02T07:38:15.231Z,101296.63
2022-09-02T07:40:17.225Z,101299.91
2022-09-02T07:42:19.728Z,101291.19
2022-09-02T07:44:22.104Z,101301.13
2022-09-02T07:46:25.119Z,101299.06
2022-09-02T07:48:28.573Z,101306.41
2022-09-02T07:50:30.587Z,101287.81
2022-09-02T07:52:32.675Z,101293.88
2022-09-02T07:54:35.181Z,101297.72
2022-09-02T07:56:37.512Z,101305.44
2022-09-02T07:58:43.442Z,101297.88
2022-09-02T08:00:45.361Z,101296.16
2022-09-02T08:02:49.547Z,101287.78
2022-09-02T08:04:51.620Z,101290.78
2022-09-02T08:06:54.917Z,101284.31
2022-09-02T08:08:57.014Z,101290.44
2022-09-02T08:10:59.820Z,101285.41
2022-09-02T08:13:01.794Z,101288.47
2022-09-02T08:15:05.214Z,101304.63
2022-09-02T08:17:08.673Z,101293.59
2022-09-02T08:19:12.040Z,101287.19
2022-09-02T08:21:14.617Z,101288.63
2022-09-02T08:23:25.629Z,101286.41
2022-09-02T08:25:36.197Z,101282.31
2022-09-02T08:27:38.492Z,101281.25
2022-09-02T08:29:40.508Z,101279.03
2022-09-02T08:31:42.531Z,101279.31
2022-09-02T08:33:44.941Z,101292.69
2022-09-02T08:35:47.847Z,101288.25
2022-09-02T08:37:50.226Z,101281.47
2022-09-02T08:39:52.156Z,101287.19
2022-09-02T08:42:02.922Z,101288.66
2022-09-02T08:44:05.955Z,101286.16
2022-09-02T08:46:12.417Z,101277.56
2022-09-02T08:48:36.880Z,101278.84
2022-09-02T08:50:42.954Z,101272.38
2022-09-02T08:53:01.944Z,101272.69
2022-09-02T08:55:07.931Z,101278.25
2022-09-02T08:57:11.333Z,101286.59
2022-09-02T08:59:16.030Z,101287.88
2022-09-02T09:01:27.072Z,101278.16
2022-09-02T09:03:43.539Z,101282.81
2022-09-02T09:06:04.157Z,101274.00
2022-09-02T09:08:21.880Z,101275.81
2022-09-02T09:10:36.079Z,101265.97
2022-09-02T09:12:40.801Z,101266.66
2022-09-02T09:14:48.525Z,101268.59
2022-09-02T09:17:03.898Z,101257.03
2022-09-02T09:19:32.377Z,101265.59
2022-09-02T09:21:34.559Z,101266.44
2022-09-02T09:23:39.643Z,101263.94
2022-09-02T09:25:41.779Z,101262.06
2022-09-02T09:27:46.335Z,101262.66
2022-09-02T09:29:49.889Z,101258.00
2022-09-02T09:32:00.434Z,101258.66
2022-09-02T09:34:05.512Z,101249.66
2022-09-02T09:36:07.854Z,101268.88
2022-09-02T09:38:13.781Z,101268.00
2022-09-02T09:40:22.182Z,101251.56
2022-09-02T09:42:38.362Z,101264.31
2022-09-02T09:44:50.290Z,101253.53
2022-09-02T09:47:02.934Z,101251.03
2022-09-02T09:49:04.925Z,101248.84
2022-09-02T09:51:06.858Z,101240.13
2022-09-02T09:53:30.211Z,101252.19
2022-09-02T09:55:32.545Z,101257.06
2022-09-02T09:57:37.684Z,101250.19
2022-09-02T09:59:43.700Z,101247.03
2022-09-02T10:01:51.619Z,101249.97
2022-09-02T10:03:58.413Z,101244.94
2022-09-02T10:06:19.483Z,101239.09
2022-09-02T10:08:27.888Z,101237.19
2022-09-02T10:10:32.703Z,101238.47
2022-09-02T10:12:34.767Z,101233.28
2022-09-02T10:14:41.602Z,101232.47
2022-09-02T10:16:56.817Z,101231.91
2022-09-02T10:19:08.463Z,101228.69
2022-09-02T10:21:32.127Z,101228.44
2022-09-02T10:24:04.912Z,101226.06
2022-09-02T10:29:09.018Z,101236.38
2022-09-02T10:31:35.594Z,101227.13
2022-09-02T10:33:50.467Z,101226.94
2022-09-02T10:35:57.107Z,101231.97
2022-09-02T10:38:05.467Z,101232.84
2022-09-02T10:40:17.445Z,101217.09
2022-09-02T10:42:56.469Z,101219.81
2022-09-02T10:45:18.197Z,101212.44
2022-09-02T10:47:35.828Z,101223.75
2022-09-02T10:49:50.371Z,101219.31
2022-09-02T10:54:56.462Z,101213.72
2022-09-02T10:57:07.896Z,101217.69
2022-09-02T10:59:11.778Z,101210.16
2022-09-02T11:01:23.918Z,101210.06
2022-09-02T11:03:59.341Z,101216.44
2022-09-02T11:06:10.681Z,101213.97
2022-09-02T11:08:32.260Z,101211.84
2022-09-02T11:10:52.837Z,101213.97
2022-09-02T11:13:05.465Z,101216.50
2022-09-02T11:15:19.077Z,101211.69
2022-09-02T11:17:30.163Z,101212.69
2022-09-02T11:19:42.392Z,101206.59
2022-09-02T11:21:58.573Z,101206.88
2022-09-02T11:24:07.193Z,101210.22
2022-09-02T11:26:21.334Z,101210.25
2022-09-02T11:28:35.697Z,101210.84
2022-09-02T11:30:45.593Z,101207.25
2022-09-02T11:32:53.223Z,101202.50
2022-09-02T11:34:58.693Z,101200.81
2022-09-02T11:37:04.425Z,101206.44
2022-09-02T11:39:51.802Z,101202.69
2022-09-02T11:42:21.676Z,101189.53
2022-09-02T11:44:52.132Z,101195.50
2022-09-02T11:47:18.335Z,101195.13
2022-09-02T11:49:45.352Z,101191.81
2022-09-02T11:52:23.999Z,101183.47
2022-09-02T11:54:30.235Z,101180.47
2022-09-02T11:56:40.039Z,101183.88
2022-09-02T11:58:45.109Z,101171.09
2022-09-02T12:00:56.109Z,101176.31
2022-09-02T12:03:37.849Z,101175.88
2022-09-02T12:05:41.456Z,101167.97
2022-09-02T12:07:49.042Z,101163.72
2022-09-02T12:09:55.239Z,101171.75
2022-09-02T12:11:57.359Z,101179.84
2022-09-02T12:14:02.811Z,101173.19
2022-09-02T12:16:24.348Z,101170.88
2022-09-02T12:18:30.542Z,101165.03
2022-09-02T12:20:41.815Z,101168.84
2022-09-02T12:22:44.009Z,101156.28
2022-09-02T12:25:06.593Z,101164.38
2022-09-02T12:27:19.249Z,101163.59
2022-09-02T12:29:22.904Z,101164.84
2022-09-02T12:31:48.520Z,101160.03
2022-09-02T12:33:54.280Z,101154.94
2022-09-02T12:35:58.487Z,101153.88
2022-09-02T12:38:09.818Z,101148.28
2022-09-02T12:40:19.601Z,101154.66
2022-09-02T12:42:30.618Z,101149.69
2022-09-02T12:45:10.487Z,101157.09
2022-09-02T12:47:32.640Z,101146.84
2022-09-02T12:49:35.161Z,101150.03
2022-09-02T12:51:57.335Z,101152.81
2022-09-02T12:54:00.162Z,101150.72
2022-09-02T12:56:04.565Z,101156.44
2022-09-02T12:58:20.136Z,101150.63
2022-09-02T13:00:31.565Z,101150.59
2022-09-02T13:02:46.017Z,101140.78
2022-09-02T13:05:03.387Z,101140.38
2022-09-02T13:07:07.890Z,101143.91
2022-09-02T13:09:21.611Z,101141.19
2022-09-02T13:11:23.605Z,101135.94
2022-09-02T13:13:40.571Z,101138.59
2022-09-02T13:16:01.213Z,101130.69
2022-09-02T13:18:11.938Z,101128.47
2022-09-02T13:20:41.817Z,101127.50
2022-09-02T13:22:52.685Z,101125.06
2022-09-02T13:25:29.147Z,101127.66
2022-09-02T13:27:44.224Z,101124.56
2022-09-02T13:29:46.128Z,101123.53
2022-09-02T13:32:10.965Z,101130.84
2022-09-02T13:34:14.064Z,101116.72
2022-09-02T13:36:36.688Z,101108.41
2022-09-02T13:38:39.138Z,101112.69
2022-09-02T13:40:46.154Z,101108.69
2022-09-02T13:42:50.566Z,101109.13
2022-09-02T13:45:13.066Z,101112.88
2022-09-02T13:47:17.804Z,101103.81
2022-09-02T13:49:26.545Z,101111.59
2022-09-02T13:51:28.546Z,101110.13
2022-09-02T13:54:11.633Z,101099.09
2022-09-02T13:56:00.587Z,101102.88
2022-09-02T13:58:06.261Z,101101.84
2022-09-02T14:00:09.276Z,101105.66
2022-09-02T14:02:35.952Z,101100.88
2022-09-02T14:04:39.840Z,101100.22
2022-09-02T14:06:46.448Z,101103.75
2022-09-02T14:08:49.679Z,101091.44
2022-09-02T14:10:54.093Z,101085.97
2022-09-02T14:12:58.200Z,101086.38
2022-09-02T14:15:01.013Z,101085.25
2022-09-02T14:17:24.823Z,101080.44
2022-09-02T14:19:26.821Z,101081.91
2022-09-02T14:21:28.939Z,101083.28
2022-09-02T14:23:36.007Z,101087.56
2022-09-02T14:25:39.627Z,101082.06
2022-09-02T14:27:50.464Z,101081.78
2022-09-02T14:29:57.465Z,101082.44
2022-09-02T14:32:25.719Z,101081.13
2022-09-02T14:34:41.040Z,101072.66
2022-09-02T14:36:42.911Z,101078.22
2022-09-02T14:38:47.520Z,101078.09
2022-09-02T14:40:49.534Z,101081.41
2022-09-02T14:42:57.757Z,101082.72
2022-09-02T14:45:00.389Z,101084.44
2022-09-02T14:47:06.531Z,101083.25
2022-09-02T14:49:11.719Z,101079.25
2022-09-02T14:51:13.794Z,101077.81
2022-09-02T14:53:22.713Z,101075.28
2022-09-02T14:55:46.291Z,101080.25
2022-09-02T14:57:48.315Z,101061.47
2022-09-02T14:59:51.394Z,101061.06
2022-09-02T15:01:55.498Z,101074.53
2022-09-02T15:03:58.168Z,101070.09
2022-09-02T15:06:00.171Z,101069.88
2022-09-02T15:08:02.413Z,101069.53
2022-09-02T15:10:05.619Z,101074.38
2022-09-02T15:12:08.258Z,101066.16
2022-09-02T15:14:12.276Z,101066.47
2022-09-02T15:16:14.239Z,101069.25
2022-09-02T15:18:16.221Z,101067.19
2022-09-02T15:20:18.162Z,101067.69
2022-09-02T15:22:21.305Z,101067.19
2022-09-02T15:24:23.399Z,101061.66
2022-09-02T15:26:25.536Z,101062.47
2022-09-02T15:28:27.537Z,101052.16
2022-09-02T15:30:29.802Z,101057.81
2022-09-02T15:32:31.816Z,101055.56
2022-09-02T15:34:35.717Z,101058.94
2022-09-02T15:36:37.899Z,101060.22
2022-09-02T15:38:41.378Z,101054.78
2022-09-02T15:40:45.411Z,101056.72
2022-09-02T15:42:47.432Z,101055.72
2022-09-02T15:44:49.381Z,101055.06
2022-09-02T15:46:51.679Z,101055.50
2022-09-02T15:48:59.040Z,101059.50
2022-09-02T15:51:12.688Z,101063.25
2022-09-02T15:53:15.827Z,101061.16
2022-09-02T15:55:17.917Z,101064.91
2022-09-02T15:57:19.890Z,101061.59
2022-09-02T15:59:23.613Z,101059.72
2022-09-02T16:01:30.750Z,101060.97
2022-09-02T16:03:35.240Z,101051.56
2022-09-02T16:05:37.436Z,101055.72
2022-09-02T16:07:39.332Z,101055.09
2022-09-02T16:09:41.387Z,101051.75
2022-09-02T16:11:45.944Z,101048.22
2022-09-02T16:13:48.339Z,101051.53
2022-09-02T16:15:53.658Z,101051.50
2022-09-02T16:17:55.823Z,101052.34
2022-09-02T16:19:57.699Z,101053.16
2022-09-02T16:21:59.890Z,101052.97
2022-09-02T16:24:02.009Z,101063.41
2022-09-02T16:26:24.821Z,101057.56
2022-09-02T16:28:27.302Z,101059.88
2022-09-02T16:30:30.274Z,101055.91
2022-09-02T16:32:33.567Z,101056.34
2022-09-02T16:34:35.518Z,101055.72
2022-09-02T16:36:46.464Z,101061.97
2022-09-02T16:38:48.513Z,101054.91
2022-09-02T16:40:55.229Z,101060.34
2022-09-02T16:42:57.206Z,101059.94
2022-09-02T16:45:00.248Z,101061.16
2022-09-02T16:47:02.388Z,101065.53
2022-09-02T16:49:06.139Z,101068.66
2022-09-02T16:51:08.151Z,101069.28
2022-09-02T16:53:10.145Z,101074.69
2022-09-02T16:55:17.999Z,101070.69
2022-09-02T16:57:19.975Z,101069.44
2022-09-02T16:59:21.873Z,101066.50
2022-09-02T17:01:23.835Z,101066.91
2022-09-02T17:03:25.913Z,101068.56
2022-09-02T17:05:27.859Z,101070.38
2022-09-02T17:07:29.803Z,101072.03
2022-09-02T17:09:31.861Z,101072.63
2022-09-02T17:11:36.709Z,101070.50
2022-09-02T17:13:38.742Z,101072.09
2022-09-02T17:15:40.692Z,101073.06
2022-09-02T17:17:42.790Z,101072.44
2022-09-02T17:19:44.763Z,101078.41
2022-09-02T17:21:51.057Z,101071.50
2022-09-02T17:23:55.437Z,101077.03
2022-09-02T17:25:57.366Z,101082.59
2022-09-02T17:27:59.424Z,101076.34
2022-09-02T17:30:01.373Z,101075.44
2022-09-02T17:32:03.708Z,101080.81
2022-09-02T17:34:09.753Z,101079.50
2022-09-02T17:36:12.828Z,101078.84
2022-09-02T17:38:16.734Z,101082.72
2022-09-02T17:40:37.027Z,101081.56
2022-09-02T17:42:39.071Z,101088.44
2022-09-02T17:44:42.155Z,101082.25
2022-09-02T17:46:45.970Z,101088.78
2022-09-02T17:49:13.008Z,101091.25
2022-09-02T17:51:10.074Z,101088.56
2022-09-02T17:53:12.061Z,101089.06
2022-09-02T17:55:14.043Z,101088.81
2022-09-02T17:57:31.415Z,101102.91
2022-09-02T18:00:01.624Z,101100.78
2022-09-02T18:02:15.496Z,101102.53
2022-09-02T18:04:59.421Z,101095.75
2022-09-02T18:07:22.098Z,101097.53
2022-09-02T18:09:25.665Z,101097.63
2022-09-02T18:11:27.958Z,101106.22
2022-09-02T18:13:32.605Z,101099.94
2022-09-02T18:15:45.706Z,101101.94
2022-09-02T18:17:51.082Z,101107.03
2022-09-02T18:19:58.590Z,101101.84
2022-09-02T18:22:25.074Z,101106.78
2022-09-02T18:24:48.534Z,101109.38
2022-09-02T18:27:21.383Z,101109.47
2022-09-02T18:29:56.880Z,101109.72
2022-09-02T18:32:23.866Z,101109.59
2022-09-02T18:34:43.555Z,101112.66
2022-09-02T18:36:51.589Z,101117.25
2022-09-02T18:39:13.921Z,101117.03
2022-09-02T18:41:20.385Z,101116.72
2022-09-02T18:43:41.379Z,101115.31
2022-09-02T18:45:54.848Z,101115.97
2022-09-02T18:48:02.922Z,101119.50
2022-09-02T18:50:07.423Z,101119.03
2022-09-02T18:52:11.668Z,101115.19
2022-09-02T18:54:23.029Z,101119.13
2022-09-02T18:56:31.435Z,101123.06
2022-09-02T18:58:41.077Z,101111.28
2022-09-02T19:00:50.950Z,101119.16
2022-09-02T19:02:55.543Z,101119.75
2022-09-02T19:04:59.051Z,101115.84
2022-09-02T19:07:22.176Z,101129.69
2022-09-02T19:09:25.870Z,101124.00
2022-09-02T19:11:27.984Z,101119.09
2022-09-02T19:13:34.655Z,101126.03
2022-09-02T19:15:38.965Z,101119.47
2022-09-02T19:17:43.059Z,101118.97
2022-09-02T19:19:45.044Z,101120.31
2022-09-02T19:21:58.665Z,101128.72
2022-09-02T19:24:05.379Z,101128.38
2022-09-02T19:26:08.510Z,101127.34
2022-09-02T19:28:14.580Z,101131.25
2022-09-02T19:30:19.188Z,101135.41
2022-09-02T19:32:27.293Z,101132.72
2022-09-02T19:34:36.115Z,101136.22
2022-09-02T19:36:43.099Z,101134.44
2022-09-02T19:38:46.684Z,101135.28
2022-09-02T19:40:49.742Z,101133.75
2022-09-02T19:42:53.283Z,101130.22
2022-09-02T19:44:55.550Z,101134.91
2022-09-02T19:47:49.905Z,101129.69
2022-09-02T19:49:20.839Z,101138.09
2022-09-02T19:51:27.404Z,101140.16
2022-09-02T19:53:33.071Z,101133.06
2022-09-02T19:55:36.113Z,101137.63
2022-09-02T19:57:38.131Z,101134.25
2022-09-02T19:59:41.413Z,101128.38
2022-09-02T20:01:43.422Z,101134.09
2022-09-02T20:03:46.739Z,101133.75
2022-09-02T20:05:53.070Z,101138.63
2022-09-02T20:07:55.464Z,101138.28
2022-09-02T20:09:57.547Z,101140.16
2022-09-02T20:12:00.446Z,101139.97
2022-09-02T20:14:04.469Z,101135.47
2022-09-02T20:16:06.967Z,101136.63
2022-09-02T20:18:12.046Z,101141.50
2022-09-02T20:20:21.981Z,101137.13
2022-09-02T20:22:24.026Z,101139.81
2022-09-02T20:24:33.926Z,101146.53
2022-09-02T20:26:41.309Z,101137.44
2022-09-02T20:28:56.441Z,101133.03
2022-09-02T20:31:10.240Z,101142.94
2022-09-02T20:33:22.706Z,101141.75
2022-09-02T20:35:44.851Z,101146.44
2022-09-02T20:37:52.759Z,101144.09
2022-09-02T20:40:35.014Z,101150.81
2022-09-02T20:42:55.984Z,101137.25
2022-09-02T20:45:11.871Z,101142.13
2022-09-02T20:47:40.418Z,101148.84
2022-09-02T20:49:42.792Z,101141.78
2022-09-02T20:52:06.779Z,101140.59
2022-09-02T20:54:25.667Z,101144.69
2022-09-02T20:56:44.407Z,101149.50
2022-09-02T20:58:55.538Z,101150.69
2022-09-02T21:01:10.617Z,101148.00
2022-09-02T21:03:17.097Z,101156.75
2022-09-02T21:05:42.248Z,101143.50
2022-09-02T21:07:48.297Z,101150.91
2022-09-02T21:10:18.829Z,101151.19
2022-09-02T21:12:37.406Z,101149.88
2022-09-02T21:14:47.201Z,101151.38
2022-09-02T21:16:57.868Z,101150.00
2022-09-02T21:19:29.208Z,101155.38
2022-09-02T21:21:54.062Z,101154.38
2022-09-02T21:24:09.010Z,101151.31
2022-09-02T21:26:18.574Z,101147.81
2022-09-02T21:28:38.298Z,101152.31
2022-09-02T21:30:44.254Z,101158.38
2022-09-02T21:32:54.271Z,101159.69
2022-09-02T21:35:01.193Z,101159.34
2022-09-02T21:37:04.517Z,101154.63
2022-09-02T21:39:14.207Z,101153.44
2022-09-02T21:41:39.153Z,101149.41
2022-09-02T21:43:59.007Z,101157.53
2022-09-02T21:46:23.256Z,101152.16
2022-09-02T21:48:35.757Z,101151.22
2022-09-02T21:50:45.642Z,101152.38
2022-09-02T21:52:47.609Z,101146.47
2022-09-02T21:55:08.844Z,101155.53
2022-09-02T21:57:53.823Z,101152.44
2022-09-02T22:00:12.845Z,101154.66
2022-09-02T22:02:32.538Z,101158.19
2022-09-02T22:05:07.961Z,101150.03
2022-09-02T22:07:22.701Z,101162.06
2022-09-02T22:09:30.175Z,101151.03
2022-09-02T22:11:46.102Z,101155.06
2022-09-02T22:13:50.632Z,101158.75
2022-09-02T22:16:18.514Z,101157.66
2022-09-02T22:18:33.117Z,101160.25
2022-09-02T22:20:40.893Z,101160.38
2022-09-02T22:22:50.369Z,101158.03
2022-09-02T22:24:52.736Z,101163.97
2022-09-02T22:27:06.544Z,101161.75
2022-09-02T22:29:25.705Z,101162.53
2022-09-02T22:31:29.250Z,101159.97
2022-09-02T22:33:37.057Z,101157.03
2022-09-02T22:36:04.427Z,101159.47
2022-09-02T22:38:27.871Z,101165.38
2022-09-02T22:40:41.374Z,101162.38
2022-09-02T22:42:52.500Z,101168.00
2022-09-02T22:45:24.256Z,101165.59
2022-09-02T22:47:47.388Z,101169.06
2022-09-02T22:50:15.999Z,101177.50
2022-09-02T22:52:40.520Z,101169.22
2022-09-02T22:54:48.825Z,101171.25
2022-09-02T22:56:56.672Z,101162.56
2022-09-02T22:59:30.678Z,101163.47
2022-09-02T23:01:45.953Z,101167.50
2022-09-02T23:04:11.401Z,101172.41
2022-09-02T23:06:26.862Z,101159.34
2022-09-02T23:08:28.998Z,101174.09
2022-09-02T23:10:30.948Z,101166.72
2022-09-02T23:12:55.206Z,101179.16
2022-09-02T23:15:12.036Z,101177.19
2022-09-02T23:17:33.985Z,101174.81
2022-09-02T23:19:51.936Z,101175.66
2022-09-02T23:22:12.263Z,101178.63
2022-09-02T23:24:35.969Z,101180.84
2022-09-02T23:27:00.345Z,101182.81
2022-09-02T23:29:19.180Z,101186.91
2022-09-02T23:31:28.206Z,101180.88
2022-09-02T23:33:49.438Z,101178.34
2022-09-02T23:36:26.239Z,101183.25
2022-09-02T23:38:49.232Z,101185.78
2022-09-02T23:41:24.030Z,101187.75
2022-09-02T23:43:26.487Z,101189.16
2022-09-02T23:45:34.097Z,101187.91
2022-09-02T23:48:07.722Z,101181.41
2022-09-02T23:50:56.568Z,101174.81
2022-09-02T23:53:10.189Z,101177.84
2022-09-02T23:55:26.877Z,101179.13
2022-09-02T23:57:56.834Z,101181.53
2022-09-02T23:59:58.630Z,101176.06
